Terminal Aerodrome Forecast
Issued by NWS

Home | Current Version | Previous Version | Text Only | Print | Product List | Glossary On
Versions: 1 2 3 4 5 6 7 8 9 10 11 12 13
000
FTUS43 KDDC 240520
TAFGCK
TAF
KGCK 240520Z 2406/2506 32007KT P6SM SKC
     FM241500 VRB06KT P6SM SKC
     FM242100 14008KT P6SM SKC
     FM250300 15010KT P6SM SCT130=

USA.gov is the U.S. government's official web portal to all federal, state and local government web resources and services.